Time;durP1;ratioP1;P1;durP2;ratioP2;P2;SDS_P1;SDS_P2;PMS_P1;PMS_P2;Temp;Humidity;BMP_temperature;BMP_pressure;BME280_temperature;BME280_humidity;BME280_pressure;Samples;Min_cycle;Max_cycle;Signal;HPM_P1;HPM_P2
2021/04/12 00:00:13;;;;;;;16.05;8.10;;;12.20;54.40;;;;;;1787375;80;21170;-82
2021/04/12 00:03:05;;;;;;;14.90;8.50;;;12.30;55.00;;;;;;1787709;79;21567;-81
2021/04/12 00:05:41;;;;;;;20.45;8.75;;;12.30;54.00;;;;;;1787570;79;21587;-81
2021/04/12 00:08:37;;;;;;;14.93;8.00;;;12.30;54.10;;;;;;1787767;80;21518;-81
2021/04/12 00:11:25;;;;;;;17.80;8.75;;;12.20;55.00;;;;;;1787571;80;21153;-81
2021/04/12 00:14:28;;;;;;;18.00;8.85;;;12.30;54.50;;;;;;1787134;80;21106;-81
2021/04/12 00:17:13;;;;;;;19.60;10.10;;;12.30;54.20;;;;;;1787638;80;21177;-81
2021/04/12 00:20:07;;;;;;;17.42;9.05;;;12.30;54.20;;;;;;1787775;80;21319;-82
2021/04/12 00:22:54;;;;;;;19.45;9.60;;;12.30;54.60;;;;;;1787558;80;21588;-82
2021/04/12 00:25:43;;;;;;;15.53;8.38;;;12.20;55.00;;;;;;1787557;80;21133;-81
2021/04/12 00:28:29;;;;;;;16.40;7.92;;;12.10;54.90;;;;;;1787552;80;21130;-81
2021/04/12 00:31:17;;;;;;;18.02;8.85;;;12.10;55.80;;;;;;1781559;80;21149;-82
2021/04/12 00:33:50;;;;;;;19.57;8.73;;;12.20;55.70;;;;;;1786715;80;21608;-80
2021/04/12 00:36:26;;;;;;;19.37;8.48;;;12.20;55.60;;;;;;1787529;80;21161;-80
2021/04/12 00:39:14;;;;;;;17.25;8.00;;;12.20;55.40;;;;;;1787673;80;21548;-80
2021/04/12 00:41:54;;;;;;;17.77;7.15;;;12.20;55.10;;;;;;1788003;80;21280;-81
2021/04/12 00:45:00;;;;;;;14.00;6.42;;;12.20;55.00;;;;;;1787194;80;21275;-81
2021/04/12 00:47:48;;;;;;;12.90;6.25;;;12.30;52.80;;;;;;1777618;80;21280;-80
2021/04/12 00:50:45;;;;;;;13.18;6.33;;;12.30;53.50;;;;;;1764964;80;21169;-80
2021/04/12 00:53:43;;;;;;;10.75;6.15;;;12.30;54.90;;;;;;1768131;80;21592;-81
2021/04/12 00:56:19;;;;;;;12.37;5.60;;;12.40;53.40;;;;;;1787740;80;21313;-81
2021/04/12 00:58:51;;;;;;;;;;;12.50;54.10;;;;;;1790192;80;21149;-80
2021/04/12 01:01:47;;;;;;;12.93;6.45;;;12.60;53.60;;;;;;1787517;80;20123;-80
2021/04/12 01:05:07;;;;;;;14.95;6.58;;;12.60;54.40;;;;;;1786941;80;21252;-80
2021/04/12 01:07:57;;;;;;;17.90;6.08;;;12.60;54.10;;;;;;1743540;80;21134;-80
2021/04/12 01:10:49;;;;;;;11.97;6.03;;;12.50;54.50;;;;;;1786865;80;21153;-80
2021/04/12 01:13:54;;;;;;;11.15;5.85;;;12.40;55.20;;;;;;1787773;80;21267;-80
2021/04/12 01:17:12;;;;;;;12.05;6.50;;;12.40;54.30;;;;;;1787257;80;21774;-80
2021/04/12 01:20:03;;;;;;;12.43;6.05;;;12.50;54.50;;;;;;1787987;80;21714;-80
2021/04/12 01:23:05;;;;;;;15.25;6.97;;;12.40;54.60;;;;;;1787747;80;21173;-80
2021/04/12 01:26:17;;;;;;;12.63;6.83;;;12.50;54.20;;;;;;1788354;80;21596;-79
2021/04/12 01:29:16;;;;;;;18.87;8.33;;;12.60;55.20;;;;;;1787766;80;21137;-80
2021/04/12 01:32:01;;;;;;;14.93;7.80;;;12.60;53.40;;;;;;1787832;80;21731;-80
2021/04/12 01:35:15;;;;;;;17.52;8.23;;;12.60;53.50;;;;;;1787798;80;21133;-80
2021/04/12 01:38:07;;;;;;;15.98;8.25;;;12.60;53.70;;;;;;1786971;80;21703;-81
2021/04/12 01:40:50;;;;;;;13.68;7.55;;;12.60;53.90;;;;;;1782648;80;21268;-81
2021/04/12 01:43:35;;;;;;;15.18;8.10;;;12.50;53.10;;;;;;1785190;80;21129;-81
2021/04/12 01:46:23;;;;;;;15.58;7.95;;;12.60;52.70;;;;;;1785298;80;21276;-82
2021/04/12 01:49:25;;;;;;;15.63;8.03;;;12.60;52.50;;;;;;1784346;80;21296;-81
2021/04/12 01:52:04;;;;;;;15.60;7.92;;;12.60;53.00;;;;;;1785300;80;21129;-80
2021/04/12 01:54:55;;;;;;;14.07;8.30;;;12.80;51.60;;;;;;1784329;80;21717;-80
2021/04/12 01:57:44;;;;;;;15.13;8.05;;;12.80;51.80;;;;;;1785162;80;21141;-81
2021/04/12 02:00:17;;;;;;;15.75;8.45;;;12.90;50.90;;;;;;1784545;80;21260;-79
2021/04/12 02:03:21;;;;;;;18.57;8.38;;;12.90;50.90;;;;;;1784375;80;21122;-79
2021/04/12 02:06:19;;;;;;;14.58;7.75;;;13.00;50.50;;;;;;1766062;80;21266;-81
2021/04/12 02:09:07;;;;;;;16.45;9.00;;;13.00;50.20;;;;;;1785018;80;21272;-81
2021/04/12 02:11:46;;;;;;;15.70;8.30;;;13.00;50.10;;;;;;1733941;80;21149;-80
2021/04/12 02:14:47;;;;;;;17.02;8.25;;;13.10;50.30;;;;;;1784967;80;21141;-80
2021/04/12 02:17:46;;;;;;;16.25;8.13;;;13.00;50.30;;;;;;1785003;80;21303;-80
2021/04/12 02:20:42;;;;;;;15.40;8.03;;;13.00;52.00;;;;;;1784968;80;21284;-81
2021/04/12 02:23:38;;;;;;;18.65;9.13;;;12.90;53.00;;;;;;1785260;80;21579;-81
2021/04/12 02:26:44;;;;;;;20.92;9.25;;;12.80;52.50;;;;;;1784559;80;21263;-81
2021/04/12 02:29:36;;;;;;;17.35;9.90;;;12.70;53.00;;;;;;1785163;80;21276;-80
2021/04/12 02:32:52;;;;;;;20.20;9.70;;;12.70;52.70;;;;;;1820285;78;22677;-80
2021/04/12 02:35:38;;;;;;;14.20;8.03;;;12.70;53.10;;;;;;1793901;80;21137;-80
2021/04/12 02:38:29;;;;;;;15.45;8.28;;;12.70;54.90;;;;;;1794119;80;21145;-80
2021/04/12 02:41:32;;;;;;;19.20;10.20;;;12.70;55.20;;;;;;1756286;80;21141;-80
2021/04/12 02:44:20;;;;;;;19.00;9.40;;;12.70;54.00;;;;;;1778000;80;21158;-80
2021/04/12 02:47:18;;;;;;;18.62;9.95;;;12.70;54.00;;;;;;1746473;80;21564;-80
2021/04/12 02:50:21;;;;;;;20.35;10.20;;;12.70;53.30;;;;;;1686587;85;21312;-81
2021/04/12 02:53:03;;;;;;;19.87;10.00;;;12.70;53.90;;;;;;1686755;85;21189;-80
2021/04/12 02:56:10;;;;;;;18.45;9.38;;;12.60;53.20;;;;;;1685703;85;21196;-82
2021/04/12 02:58:58;;;;;;;18.05;9.33;;;12.70;52.40;;;;;;1686708;84;21731;-81
2021/04/12 03:01:38;;;;;;;20.77;9.18;;;12.70;51.80;;;;;;1686506;85;21139;-80
2021/04/12 03:04:45;;;;;;;16.23;8.75;;;12.70;52.20;;;;;;1686713;85;21173;-80
2021/04/12 03:07:53;;;;;;;18.65;9.45;;;12.70;51.80;;;;;;1686726;85;21149;-80
2021/04/12 03:10:45;;;;;;;16.00;9.70;;;12.60;51.90;;;;;;1683717;85;21190;-81
2021/04/12 03:13:50;;;;;;;23.85;9.85;;;12.60;52.10;;;;;;1686740;85;21299;-81
2021/04/12 03:16:53;;;;;;;15.85;8.28;;;12.60;52.60;;;;;;1679121;85;21176;-81
2021/04/12 03:20:00;;;;;;;17.15;8.58;;;12.50;53.70;;;;;;1664446;85;21627;-81
2021/04/12 03:23:17;;;;;;;20.60;11.25;;;12.50;53.10;;;;;;1804613;79;38958;-80
2021/04/12 03:26:24;;;;;;;17.37;9.38;;;12.60;53.10;;;;;;1793525;80;21090;-80
2021/04/12 03:29:23;;;;;;;19.27;9.43;;;12.50;54.30;;;;;;1793767;80;21738;-81
2021/04/12 03:32:17;;;;;;;15.03;9.10;;;12.40;55.60;;;;;;1792766;80;21302;-82
2021/04/12 03:35:02;;;;;;;18.65;9.00;;;12.30;56.00;;;;;;1793269;80;21144;-82
2021/04/12 03:37:57;;;;;;;15.55;8.45;;;12.20;57.00;;;;;;1793681;80;21263;-82
2021/04/12 03:40:36;;;;;;;15.70;9.13;;;12.20;57.50;;;;;;1793674;80;21650;-82
2021/04/12 03:43:24;;;;;;;20.20;9.60;;;12.10;57.00;;;;;;1793743;80;21701;-82
2021/04/12 03:46:44;;;;;;;18.20;9.83;;;12.10;57.00;;;;;;1794947;80;21140;-81
2021/04/12 03:49:52;;;;;;;17.77;9.88;;;12.10;56.80;;;;;;1793645;80;21140;-81
2021/04/12 03:52:57;;;;;;;22.85;9.78;;;12.10;57.00;;;;;;1793491;80;21136;-80
2021/04/12 03:55:50;;;;;;;20.32;9.70;;;11.90;56.90;;;;;;1793739;80;21239;-80
2021/04/12 03:58:54;;;;;;;17.12;8.93;;;11.80;57.40;;;;;;1791158;80;21259;-80
2021/04/12 04:01:49;;;;;;;15.08;9.25;;;11.80;58.40;;;;;;1793611;80;21149;-81
2021/04/12 04:04:37;;;;;;;15.68;9.15;;;11.70;58.10;;;;;;1766819;80;21598;-81
2021/04/12 04:07:34;;;;;;;17.35;9.40;;;11.70;57.90;;;;;;1793588;80;21133;-83
2021/04/12 04:10:30;;;;;;;24.35;10.72;;;11.80;58.20;;;;;;1793610;80;21140;-83
2021/04/12 04:13:43;;;;;;;22.25;10.20;;;11.90;57.20;;;;;;1793723;80;21262;-80
2021/04/12 04:16:25;;;;;;;21.90;10.10;;;12.00;56.20;;;;;;1793567;80;21152;-79
2021/04/12 04:19:17;;;;;;;22.35;9.58;;;12.00;55.80;;;;;;1792309;80;21148;-80
2021/04/12 04:22:04;;;;;;;23.35;9.98;;;12.10;57.30;;;;;;1786712;80;21160;-80
2021/04/12 04:25:11;;;;;;;20.10;10.28;;;12.10;57.30;;;;;;1779072;80;21145;-79
2021/04/12 04:28:04;;;;;;;18.40;10.18;;;12.00;56.20;;;;;;1780302;80;21133;-80
2021/04/12 04:31:00;;;;;;;16.97;9.55;;;11.90;56.00;;;;;;1780094;81;21544;-80
2021/04/12 04:33:59;;;;;;;22.82;9.95;;;11.90;57.30;;;;;;1779660;80;21125;-82
2021/04/12 04:37:24;;;;;;;19.67;9.20;;;11.80;57.80;;;;;;1779780;81;21141;-82
2021/04/12 04:40:09;;;;;;;21.05;10.40;;;11.80;58.00;;;;;;1779517;81;21572;-82
2021/04/12 04:43:21;;;;;;;21.25;9.98;;;11.90;57.90;;;;;;1768459;81;21136;-82
2021/04/12 04:45:58;;;;;;;19.17;9.78;;;11.80;59.30;;;;;;1779364;81;21754;-82
2021/04/12 04:48:37;;;;;;;18.55;10.13;;;11.80;57.90;;;;;;1779687;80;21272;-82
2021/04/12 04:51:58;;;;;;;21.17;10.85;;;11.90;58.00;;;;;;1779303;80;21133;-83
2021/04/12 04:55:00;;;;;;;20.75;10.88;;;11.90;57.90;;;;;;1779251;80;21722;-82
2021/04/12 04:57:59;;;;;;;19.73;10.20;;;11.90;56.80;;;;;;1778837;80;21287;-82
2021/04/12 05:00:51;;;;;;;22.95;9.78;;;12.00;55.60;;;;;;1779454;80;21129;-82
2021/04/12 05:03:42;;;;;;;23.98;10.38;;;12.00;55.60;;;;;;1774349;81;21276;-82
2021/04/12 05:06:46;;;;;;;21.93;10.32;;;12.00;56.30;;;;;;1777781;80;21124;-81
2021/04/12 05:09:53;;;;;;;22.95;10.53;;;12.10;56.70;;;;;;1779251;80;21691;-81
2021/04/12 05:12:48;;;;;;;28.05;11.20;;;12.20;55.30;;;;;;1779559;80;21132;-81
2021/04/12 05:15:38;;;;;;;29.35;14.03;;;12.30;56.30;;;;;;1779218;80;21267;-81
2021/04/12 05:18:38;;;;;;;27.93;13.08;;;12.50;55.90;;;;;;1778302;80;21272;-81
2021/04/12 05:21:11;;;;;;;23.02;12.43;;;12.60;56.00;;;;;;1780803;80;21137;-81
2021/04/12 05:24:07;;;;;;;27.75;12.75;;;12.70;55.60;;;;;;1793123;80;21125;-81
2021/04/12 05:27:02;;;;;;;25.57;12.68;;;12.70;55.30;;;;;;1793349;80;21124;-81
2021/04/12 05:30:04;;;;;;;32.70;14.95;;;12.60;55.90;;;;;;1792076;80;21145;-79
2021/04/12 05:32:42;;;;;;;23.07;13.05;;;12.70;55.30;;;;;;1791386;80;21149;-80
2021/04/12 05:35:48;;;;;;;24.72;12.45;;;12.80;54.20;;;;;;1793177;80;21501;-81
2021/04/12 05:38:53;;;;;;;23.20;13.18;;;12.80;54.10;;;;;;1792634;80;21113;-82
2021/04/12 05:41:46;;;;;;;17.80;10.58;;;12.90;53.90;;;;;;1793456;80;21130;-81
2021/04/12 05:44:46;;;;;;;19.17;10.75;;;13.00;54.40;;;;;;1793121;80;21125;-80
2021/04/12 05:47:53;;;;;;;25.80;12.20;;;13.10;54.20;;;;;;1793077;80;21125;-81
2021/04/12 05:50:41;;;;;;;24.98;12.82;;;13.10;52.90;;;;;;1793064;80;21164;-82
2021/04/12 05:53:52;;;;;;;25.62;12.60;;;13.10;53.10;;;;;;1755576;80;21622;-82
2021/04/12 05:56:52;;;;;;;21.05;10.48;;;13.10;53.20;;;;;;1793095;80;21141;-82
2021/04/12 06:00:00;;;;;;;20.88;10.82;;;13.10;52.90;;;;;;1792927;80;21109;-81
2021/04/12 06:03:02;;;;;;;;;;;13.20;52.00;;;;;;1795610;80;21153;-81
2021/04/12 06:05:58;;;;;;;23.25;9.93;;;13.20;53.60;;;;;;1793051;80;20138;-81
2021/04/12 06:08:58;;;;;;;17.35;9.50;;;13.30;52.20;;;;;;1792847;80;21172;-80
2021/04/12 06:11:51;;;;;;;19.73;10.25;;;13.40;52.70;;;;;;1793102;80;21133;-80
2021/04/12 06:15:13;;;;;;;22.82;12.68;;;13.50;51.80;;;;;;1793069;80;21560;-81
2021/04/12 06:18:07;;;;;;;16.55;9.58;;;13.50;51.70;;;;;;1793041;80;21144;-81
2021/04/12 06:21:09;;;;;;;19.45;9.50;;;13.50;51.00;;;;;;1792992;80;21140;-81
2021/04/12 06:24:01;;;;;;;15.35;8.88;;;13.60;51.00;;;;;;1793021;80;21097;-80
2021/04/12 06:26:56;;;;;;;17.65;9.43;;;13.70;51.20;;;;;;1793028;80;21129;-81
2021/04/12 06:29:47;;;;;;;20.10;8.98;;;13.70;51.20;;;;;;1793116;80;21124;-81
2021/04/12 06:32:52;;;;;;;25.77;9.10;;;13.70;51.50;;;;;;1793068;80;21097;-81
2021/04/12 06:36:01;;;;;;;20.27;8.90;;;13.70;51.10;;;;;;1697712;84;21671;-80
2021/04/12 06:39:28;;;;;;;16.10;8.85;;;13.70;52.10;;;;;;1813158;79;22864;-81
2021/04/12 06:42:31;;;;;;;20.17;8.83;;;13.70;52.00;;;;;;1784151;80;21144;-82
2021/04/12 06:45:13;;;;;;;26.95;10.10;;;13.80;51.60;;;;;;1781924;80;21121;-81
2021/04/12 06:48:13;;;;;;;20.43;8.75;;;13.80;51.20;;;;;;1783997;80;21128;-81
2021/04/12 06:51:18;;;;;;;18.32;8.65;;;13.80;51.20;;;;;;1779563;80;21140;-81
2021/04/12 06:54:10;;;;;;;21.55;9.45;;;13.90;51.20;;;;;;1784167;80;21144;-81
2021/04/12 06:57:31;;;;;;;18.70;9.40;;;14.00;51.30;;;;;;1784204;80;21552;-81
2021/04/12 07:00:36;;;;;;;25.92;9.68;;;14.10;51.50;;;;;;1784306;80;21117;-81
2021/04/12 07:03:48;;;;;;;20.57;9.03;;;14.20;51.30;;;;;;1784075;80;21567;-82
2021/04/12 07:06:47;;;;;;;21.50;9.30;;;14.20;51.40;;;;;;1783935;80;21540;-81
2021/04/12 07:09:54;;;;;;;24.82;10.82;;;14.30;50.10;;;;;;1784304;80;21536;-82
2021/04/12 07:13:02;;;;;;;24.77;10.32;;;14.30;50.00;;;;;;1783645;80;21133;-83
2021/04/12 07:16:19;;;;;;;29.12;10.63;;;14.30;49.80;;;;;;1783910;80;21129;-82
2021/04/12 07:19:20;;;;;;;26.05;10.38;;;14.40;50.30;;;;;;1782508;80;21132;-82
2021/04/12 07:22:32;;;;;;;28.00;11.15;;;14.50;51.00;;;;;;1783108;80;21144;-82
2021/04/12 07:25:47;;;;;;;21.15;9.38;;;14.50;49.40;;;;;;1782458;80;21575;-82
2021/04/12 07:29:00;;;;;;;23.67;10.40;;;14.60;48.60;;;;;;1784472;80;21145;-81
2021/04/12 07:32:12;;;;;;;21.60;10.08;;;14.70;49.50;;;;;;1784465;80;21865;-81
2021/04/12 07:35:12;;;;;;;25.85;9.60;;;14.80;49.60;;;;;;1784026;80;21148;-81
2021/04/12 07:38:21;;;;;;;25.12;10.72;;;14.90;49.00;;;;;;1786580;80;21140;-82
2021/04/12 07:41:13;;;;;;;24.65;10.10;;;15.00;48.50;;;;;;1792953;80;21152;-83
2021/04/12 07:44:31;;;;;;;19.77;9.40;;;15.20;48.40;;;;;;1793167;80;21139;-82
2021/04/12 07:47:50;;;;;;;20.27;10.08;;;15.40;48.40;;;;;;1793105;80;21164;-81
2021/04/12 07:51:01;;;;;;;25.72;11.28;;;15.60;48.40;;;;;;1792314;80;21282;-81
2021/04/12 07:53:49;;;;;;;25.72;11.50;;;16.00;48.10;;;;;;1792527;80;21140;-81
2021/04/12 07:57:13;;;;;;;24.52;11.50;;;16.30;47.70;;;;;;1792566;80;21136;-82
2021/04/12 08:00:21;;;;;;;23.60;11.55;;;16.70;47.70;;;;;;1792300;80;21314;-81
2021/04/12 08:03:09;;;;;;;23.50;11.53;;;17.30;46.10;;;;;;1792324;80;21128;-81
2021/04/12 08:06:09;;;;;;;23.80;11.55;;;18.10;45.40;;;;;;1792535;80;21172;-80
2021/04/12 08:08:48;;;;;;;25.30;11.75;;;18.80;43.50;;;;;;1792289;80;21566;-81
2021/04/12 08:12:08;;;;;;;16.93;10.43;;;19.70;41.70;;;;;;1790664;80;21280;-80
2021/04/12 08:15:00;;;;;;;22.37;10.10;;;20.30;40.30;;;;;;1755483;80;21151;-81
2021/04/12 08:18:13;;;;;;;21.05;8.80;;;21.30;39.50;;;;;;1789890;80;21322;-81
2021/04/12 08:21:12;;;;;;;14.58;8.50;;;22.00;37.00;;;;;;1792489;80;21135;-81
2021/04/12 08:24:17;;;;;;;17.17;8.43;;;22.60;36.20;;;;;;1780974;80;21622;-80
2021/04/12 08:27:21;;;;;;;13.85;8.25;;;23.00;34.80;;;;;;1723901;83;21588;-81
2021/04/12 08:30:27;;;;;;;15.25;8.10;;;23.40;33.00;;;;;;1785767;80;21140;-80
2021/04/12 08:33:51;;;;;;;18.42;8.33;;;23.40;32.40;;;;;;1792371;80;21282;-80
2021/04/12 08:36:47;;;;;;;12.80;8.08;;;23.50;32.90;;;;;;1701772;84;21184;-81
2021/04/12 08:39:32;;;;;;;15.40;7.42;;;23.50;32.30;;;;;;1792115;80;21550;-80
2021/04/12 08:42:47;;;;;;;14.33;7.08;;;23.70;32.30;;;;;;1791250;80;21135;-81
2021/04/12 08:45:55;;;;;;;10.48;6.58;;;23.80;31.00;;;;;;1792227;80;21282;-80
2021/04/12 08:49:14;;;;;;;15.72;7.12;;;23.70;30.40;;;;;;1790798;80;21168;-80
2021/04/12 08:52:38;;;;;;;14.55;6.42;;;23.50;30.50;;;;;;1792323;80;21697;-80
2021/04/12 08:55:33;;;;;;;11.10;6.28;;;23.20;29.90;;;;;;1792227;80;21164;-80
2021/04/12 08:58:45;;;;;;;13.00;6.58;;;22.90;30.30;;;;;;1792465;80;21171;-81
2021/04/12 09:01:56;;;;;;;10.82;6.25;;;22.90;30.90;;;;;;1792391;80;21756;-80
2021/04/12 09:05:06;;;;;;;15.63;7.10;;;22.90;30.00;;;;;;1792458;80;21223;-81
2021/04/12 09:08:16;;;;;;;14.50;7.78;;;22.90;28.60;;;;;;1792231;80;21139;-80
2021/04/12 09:11:07;;;;;;;12.33;6.40;;;22.80;28.50;;;;;;1792579;80;21171;-80
2021/04/12 09:14:12;;;;;;;11.03;6.12;;;22.60;27.30;;;;;;1792305;80;21547;-80
2021/04/12 09:17:24;;;;;;;8.85;5.58;;;22.40;28.30;;;;;;1792491;80;21136;-80
2021/04/12 09:20:03;;;;;;;10.13;6.10;;;22.20;27.80;;;;;;1792322;80;21721;-80
2021/04/12 09:23:02;;;;;;;10.80;6.22;;;21.90;28.60;;;;;;1792297;80;21140;-80
2021/04/12 09:26:12;;;;;;;12.45;6.62;;;21.70;28.20;;;;;;1792387;80;21565;-79
2021/04/12 09:29:14;;;;;;;13.38;7.70;;;21.50;29.20;;;;;;1761132;80;21159;-80
2021/04/12 09:32:10;;;;;;;13.48;7.30;;;21.40;29.80;;;;;;1716959;80;21113;-80
2021/04/12 09:35:05;;;;;;;11.90;6.27;;;21.30;29.50;;;;;;1792681;80;21275;-80
2021/04/12 09:38:13;;;;;;;11.78;6.33;;;21.30;30.10;;;;;;1792307;80;21156;-80
2021/04/12 09:41:23;;;;;;;10.55;5.90;;;21.20;29.80;;;;;;1792386;80;21287;-80
2021/04/12 09:44:20;;;;;;;11.57;5.28;;;21.00;30.20;;;;;;1762756;80;21139;-81
2021/04/12 09:47:28;;;;;;;12.98;5.92;;;21.00;30.00;;;;;;1792414;80;21274;-80
2021/04/12 09:50:27;;;;;;;13.30;6.08;;;20.90;29.30;;;;;;1792171;80;21267;-80
2021/04/12 09:53:49;;;;;;;10.60;5.22;;;20.70;30.00;;;;;;1792572;80;21113;-80
2021/04/12 09:56:44;;;;;;;8.28;5.22;;;20.70;30.70;;;;;;1792477;80;21339;-80
2021/04/12 09:59:53;;;;;;;11.18;5.62;;;20.80;30.80;;;;;;1791494;80;21133;-80
2021/04/12 10:02:58;;;;;;;11.85;5.90;;;20.90;31.10;;;;;;1792389;80;21132;-79
2021/04/12 10:06:18;;;;;;;9.70;5.85;;;20.90;31.10;;;;;;1789323;80;21348;-81
2021/04/12 10:09:15;;;;;;;10.35;5.58;;;20.70;29.50;;;;;;1790681;80;21278;-80
2021/04/12 10:11:51;;;;;;;10.43;5.67;;;20.60;30.20;;;;;;1792362;80;21275;-82
2021/04/12 10:14:27;;;;;;;;;;;20.60;30.30;;;;;;1794964;80;21266;-83
2021/04/12 10:17:09;;;;;;;9.28;5.83;;;20.50;30.10;;;;;;1792224;80;20240;-81
2021/04/12 10:19:54;;;;;;;12.05;6.20;;;20.50;31.00;;;;;;1792371;80;21146;-81
2021/04/12 10:22:40;;;;;;;11.93;5.80;;;20.50;30.70;;;;;;1792751;80;21136;-80
2021/04/12 10:25:16;;;;;;;13.28;5.60;;;20.50;31.00;;;;;;1792205;80;21167;-80
2021/04/12 10:27:53;;;;;;;10.28;6.08;;;20.50;31.10;;;;;;1792698;80;21145;-80
2021/04/12 10:30:47;;;;;;;11.68;6.55;;;20.50;30.70;;;;;;1792351;80;21143;-80
2021/04/12 10:33:47;;;;;;;14.80;7.35;;;20.40;30.50;;;;;;1780938;79;23476;-80
2021/04/12 10:36:29;;;;;;;12.37;6.22;;;20.30;31.20;;;;;;1744929;82;21149;-80
2021/04/12 10:39:07;;;;;;;15.13;6.25;;;20.20;32.00;;;;;;1751251;82;21154;-80
2021/04/12 10:41:38;;;;;;;;;;;20.20;32.30;;;;;;1754061;81;21150;-80
2021/04/12 10:44:15;;;;;;;10.68;5.30;;;20.10;31.40;;;;;;1751305;82;20435;-80
2021/04/12 10:47:13;;;;;;;11.65;6.17;;;20.10;32.40;;;;;;1751844;82;21130;-80
2021/04/12 10:50:06;;;;;;;10.95;5.97;;;20.10;32.10;;;;;;1751555;81;21106;-81
2021/04/12 10:52:51;;;;;;;11.22;5.55;;;20.10;32.50;;;;;;1751302;82;21175;-80
2021/04/12 10:55:43;;;;;;;13.03;6.35;;;20.10;32.20;;;;;;1750205;82;21137;-81
2021/04/12 10:58:43;;;;;;;10.18;5.90;;;20.10;32.40;;;;;;1751267;82;21129;-81
2021/04/12 11:01:31;;;;;;;9.98;5.33;;;20.00;32.20;;;;;;1751413;82;21138;-81
2021/04/12 11:04:17;;;;;;;9.70;5.40;;;20.00;32.20;;;;;;1751376;82;21118;-80
2021/04/12 11:07:19;;;;;;;11.10;5.50;;;20.00;32.40;;;;;;1751125;81;21153;-81
2021/04/12 11:10:07;;;;;;;11.53;5.33;;;19.90;32.60;;;;;;1751242;81;21102;-80
2021/04/12 11:12:46;;;;;;;11.68;5.35;;;19.90;33.00;;;;;;1749755;82;21161;-80
2021/04/12 11:15:51;;;;;;;14.07;5.70;;;19.90;32.70;;;;;;1750192;82;21539;-80
2021/04/12 11:18:36;;;;;;;12.95;5.35;;;19.90;33.00;;;;;;1750679;82;21149;-79
2021/04/12 11:21:38;;;;;;;10.40;5.78;;;19.90;33.20;;;;;;1751261;82;21142;-80
2021/04/12 11:24:22;;;;;;;11.93;5.45;;;19.90;34.00;;;;;;1751395;82;21150;-81
2021/04/12 11:27:31;;;;;;;11.88;5.45;;;19.90;33.30;;;;;;1750363;82;21182;-79
2021/04/12 11:30:17;;;;;;;9.83;5.28;;;20.00;33.50;;;;;;1740983;82;21161;-80
2021/04/12 11:33:13;;;;;;;9.47;5.30;;;20.00;33.60;;;;;;1741922;81;21537;-80
2021/04/12 11:35:49;;;;;;;15.38;6.03;;;20.10;33.60;;;;;;1740902;82;21131;-80
2021/04/12 11:38:28;;;;;;;12.07;5.70;;;20.10;34.00;;;;;;1740792;82;21154;-79
2021/04/12 11:41:19;;;;;;;10.82;5.30;;;20.10;33.60;;;;;;1727275;82;21146;-81
2021/04/12 11:43:52;;;;;;;15.00;5.67;;;20.10;33.60;;;;;;1740658;82;21158;-81
2021/04/12 11:47:14;;;;;;;14.00;5.47;;;20.10;33.60;;;;;;1740233;82;21166;-80
2021/04/12 11:50:21;;;;;;;9.90;4.97;;;20.10;34.50;;;;;;1740088;82;21166;-81
2021/04/12 11:53:08;;;;;;;10.38;5.00;;;20.10;34.00;;;;;;1740057;82;21328;-81
2021/04/12 11:55:56;;;;;;;10.03;5.33;;;20.10;33.40;;;;;;1740283;82;21280;-80
2021/04/12 11:58:53;;;;;;;11.57;5.70;;;20.10;34.10;;;;;;1740375;82;21142;-81
2021/04/12 12:01:50;;;;;;;12.45;4.90;;;20.20;33.60;;;;;;1738447;82;21569;-80
2021/04/12 12:04:54;;;;;;;13.65;5.97;;;20.20;34.30;;;;;;1726159;82;21182;-79
2021/04/12 12:07:48;;;;;;;13.55;5.62;;;20.20;33.70;;;;;;1740113;82;21276;-80
2021/04/12 12:10:33;;;;;;;10.68;5.08;;;20.20;34.30;;;;;;1740097;82;21273;-80
2021/04/12 12:13:28;;;;;;;9.60;4.95;;;20.20;33.50;;;;;;1740045;82;21280;-80
2021/04/12 12:16:33;;;;;;;14.28;4.83;;;20.10;33.10;;;;;;1739807;82;21303;-81
2021/04/12 12:19:37;;;;;;;10.85;5.22;;;20.20;33.10;;;;;;1740316;82;21707;-81
2021/04/12 12:22:16;;;;;;;16.42;5.53;;;20.20;34.00;;;;;;1739444;82;21300;-80
2021/04/12 12:25:02;;;;;;;12.23;5.25;;;20.20;33.90;;;;;;1740209;82;21134;-80
2021/04/12 12:27:41;;;;;;;17.15;5.45;;;20.20;33.80;;;;;;1740205;82;21288;-80
2021/04/12 12:30:29;;;;;;;12.05;4.75;;;20.30;33.50;;;;;;1740102;82;21320;-82
2021/04/12 12:33:27;;;;;;;11.93;4.72;;;20.30;33.50;;;;;;1740100;81;21720;-80
2021/04/12 12:36:09;;;;;;;10.20;4.72;;;20.20;33.70;;;;;;1739660;82;21727;-80
2021/04/12 12:38:54;;;;;;;9.58;5.10;;;20.30;33.50;;;;;;1740106;82;21099;-83
2021/04/12 12:41:30;;;;;;;8.90;4.70;;;20.30;33.50;;;;;;1705109;82;21625;-78
2021/04/12 12:44:06;;;;;;;8.85;4.80;;;20.30;33.00;;;;;;1739847;82;21289;-80
2021/04/12 12:46:38;;;;;;;10.60;4.80;;;20.40;32.80;;;;;;1740281;82;21103;-80
2021/04/12 12:49:22;;;;;;;12.13;4.47;;;20.40;33.20;;;;;;1740201;82;21581;-80
2021/04/12 12:52:04;;;;;;;10.75;4.78;;;20.40;33.50;;;;;;1740193;82;21158;-79
2021/04/12 12:54:47;;;;;;;9.05;4.95;;;20.40;33.70;;;;;;1740028;82;21133;-80
2021/04/12 12:57:28;;;;;;;11.38;5.17;;;20.50;34.50;;;;;;1740535;82;21142;-80
2021/04/12 13:00:39;;;;;;;13.98;4.87;;;20.50;32.90;;;;;;1740421;82;21115;-80
2021/04/12 13:03:28;;;;;;;13.05;5.00;;;20.40;32.70;;;;;;1740124;82;21612;-80
2021/04/12 13:06:02;;;;;;;14.20;4.75;;;20.40;32.80;;;;;;1740064;82;21095;-80
2021/04/12 13:08:35;;;;;;;12.73;4.72;;;20.50;33.50;;;;;;1736547;82;21122;-80
2021/04/12 13:11:03;;;;;;;10.53;4.78;;;20.40;33.00;;;;;;1740138;82;21284;-81
2021/04/12 13:13:35;;;;;;;8.78;5.03;;;20.50;33.20;;;;;;1740127;82;21707;-80
2021/04/12 13:16:24;;;;;;;11.57;4.30;;;20.50;33.10;;;;;;1740065;82;21126;-81
2021/04/12 13:18:59;;;;;;;14.28;4.95;;;20.50;32.80;;;;;;1739164;82;21176;-81
2021/04/12 13:21:33;;;;;;;10.60;4.50;;;20.50;33.10;;;;;;1740182;82;21703;-80
2021/04/12 13:24:27;;;;;;;9.13;4.62;;;20.50;33.30;;;;;;1740109;82;21699;-81
2021/04/12 13:27:03;;;;;;;10.53;4.95;;;20.50;32.70;;;;;;1740060;82;21284;-80
2021/04/12 13:29:34;;;;;;;;;;;20.50;32.90;;;;;;1742707;82;21688;-79
2021/04/12 13:32:13;;;;;;;11.73;4.90;;;20.50;32.80;;;;;;1739350;81;20170;-78
2021/04/12 13:34:49;;;;;;;10.35;5.60;;;20.50;32.80;;;;;;1740030;82;21134;-79
2021/04/12 13:37:20;;;;;;;;;;;20.60;33.30;;;;;;1742810;82;21617;-80
2021/04/12 13:39:59;;;;;;;11.85;4.83;;;20.60;33.00;;;;;;1739732;82;20253;-80
2021/04/12 13:42:54;;;;;;;11.83;5.00;;;20.60;32.70;;;;;;1739916;82;21272;-80
2021/04/12 13:45:30;;;;;;;11.00;4.78;;;20.60;32.80;;;;;;1740166;82;21126;-80
2021/04/12 13:48:06;;;;;;;10.80;4.65;;;20.60;32.50;;;;;;1739773;82;21299;-79
2021/04/12 13:50:54;;;;;;;11.85;4.62;;;20.60;32.40;;;;;;1735860;82;21153;-80
2021/04/12 13:53:48;;;;;;;12.40;4.87;;;20.60;32.40;;;;;;1740015;82;21719;-80
2021/04/12 13:56:33;;;;;;;9.88;5.35;;;20.60;32.70;;;;;;1740126;82;21264;-79
2021/04/12 13:59:17;;;;;;;7.60;4.75;;;20.60;32.70;;;;;;1727881;82;21250;-80
2021/04/12 14:02:20;;;;;;;14.78;5.45;;;20.60;32.50;;;;;;1740102;82;21572;-79
2021/04/12 14:04:57;;;;;;;12.10;5.30;;;20.60;32.60;;;;;;1740278;82;21676;-79
2021/04/12 14:07:48;;;;;;;8.43;4.87;;;20.60;32.70;;;;;;1739660;82;21280;-80
2021/04/12 14:10:24;;;;;;;13.20;5.45;;;20.60;32.60;;;;;;1740103;82;21695;-80
2021/04/12 14:13:06;;;;;;;;;;;20.60;33.40;;;;;;1742573;82;21308;-80
2021/04/12 14:15:58;;;;;;;9.80;5.00;;;20.60;32.50;;;;;;1740340;82;20180;-79
2021/04/12 14:19:02;;;;;;;11.03;5.05;;;20.60;33.30;;;;;;1824271;77;23475;-80
2021/04/12 14:21:35;;;;;;;15.23;5.90;;;20.60;33.00;;;;;;1828647;78;21148;-80
2021/04/12 14:24:30;;;;;;;10.70;4.60;;;20.70;33.10;;;;;;1828156;78;21113;-80
2021/04/12 14:27:09;;;;;;;14.47;4.95;;;20.70;33.00;;;;;;1828141;78;21252;-80
2021/04/12 14:30:04;;;;;;;11.28;5.80;;;20.70;33.10;;;;;;1828233;78;21771;-80
2021/04/12 14:32:46;;;;;;;10.72;5.53;;;20.70;33.10;;;;;;1828214;78;21274;-79
2021/04/12 14:35:35;;;;;;;10.30;5.25;;;20.70;32.70;;;;;;1828148;78;21548;-80
2021/04/12 14:38:11;;;;;;;14.03;6.00;;;20.70;32.80;;;;;;1828409;78;21706;-79
2021/04/12 14:40:43;;;;;;;11.63;5.40;;;20.70;32.70;;;;;;1828049;78;21136;-80
2021/04/12 14:43:31;;;;;;;9.98;5.70;;;20.70;32.50;;;;;;1828249;78;21626;-80
2021/04/12 14:46:16;;;;;;;17.37;5.20;;;20.70;32.70;;;;;;1828105;78;21517;-79
2021/04/12 14:49:04;;;;;;;11.28;5.50;;;20.70;32.90;;;;;;1828489;78;21153;-81
2021/04/12 14:51:40;;;;;;;9.38;4.95;;;20.60;32.70;;;;;;1828271;78;21261;-80
2021/04/12 14:54:32;;;;;;;11.70;5.03;;;20.60;32.70;;;;;;1826769;78;21611;-79
2021/04/12 14:57:17;;;;;;;11.65;5.35;;;20.60;33.00;;;;;;1828166;78;21137;-80